Home > Products > Valid Products > TAF

000
FTUS45 KBOU 201731
TAFDEN
TAF
KDEN 201731Z 2018/2124 34009KT P6SM SCT080 BKN130
     FM202000 02011KT P6SM VCSH SCT080 BKN120
     FM210200 33008KT P6SM FEW080 SCT120 BKN200
     FM210400 28007KT P6SM FEW140 SCT220
     FM210900 01010KT P6SM FEW060 SCT080
     FM211300 03009KT P6SM SCT035 BKN050
     FM211700 09008KT P6SM FEW050 SCT090
     FM212100 11012KT P6SM SCT090 BKN150=



000
FTUS45 KBOU 201731
TAFAPA
TAF
KAPA 201731Z 2018/2118 34007KT P6SM SCT080 BKN130
     FM202000 01009KT P6SM VCSH SCT080 BKN120
     FM210200 32006KT P6SM FEW080 SCT120 BKN200
     FM210400 25006KT P6SM FEW140 SCT220
     FM211000 35009KT P6SM FEW050 SCT080
     FM211300 02010KT P6SM SCT030 BKN045
     FM211700 06008KT P6SM FEW050 SCT090=



000
FTUS45 KBOU 201731
TAFBJC
TAF
KBJC 201731Z 2018/2118 33009KT P6SM SCT080 BKN130
     FM201900 35010KT P6SM VCSH SCT080 BKN120
     FM210100 33008KT P6SM FEW080 SCT120 BKN200
     FM210400 28007KT P6SM FEW140 SCT220
     FM210900 36009KT P6SM FEW060 SCT080
     FM211300 01010KT P6SM SCT030 BKN040
     FM211700 06008KT P6SM FEW050 SCT090=



000
FTUS45 KBOU 201504 AAA
TAFBJC
TAF AMD
KBJC 201504Z 2015/2112 33004KT P6SM FEW080 SCT140
     FM201700 36008KT P6SM SCT080 SCT140
     FM202000 04010KT P6SM VCSH SCT070 BKN110
     FM210100 33011KT P6SM SCT080 BKN120
     FM210400 27008KT P6SM FEW140 SCT220
     FM211000 35008KT P6SM FEW060 SCT080=



000
FTUS45 KBOU 201503 AAB
TAFDEN
TAF AMD
KDEN 201503Z 2015/2118 28007KT P6SM FEW090 SCT140
     FM201700 35009KT P6SM SCT090 BKN140
     FM202000 02012KT P6SM VCSH SCT080 BKN120
     FM210000 34010KT P6SM SCT120 BKN200
     FM210400 28008KT P6SM FEW140 SCT220
     FM211000 35009KT P6SM FEW060 SCT080
     FM211300 05013KT P6SM SCT040 BKN060
     FM211700 09008KT P6SM FEW090 SCT140=



000
FTUS45 KBOU 201244 AAA
TAFDEN
TAF AMD
KDEN 201244Z 2013/2118 22010KT P6SM FEW090 SCT220
     FM201500 26008KT P6SM FEW090 SCT140
     FM201700 35011KT P6SM SCT090 BKN140
     FM202000 03013KT P6SM VCSH SCT080 BKN120
     FM210000 34010KT P6SM SCT120 BKN200
     FM210400 28008KT P6SM FEW140 SCT220
     FM211000 35009KT P6SM FEW060 SCT080
     FM211300 05013KT P6SM SCT040 BKN060
     FM211700 09008KT P6SM FEW090 SCT140=



000
FTUS45 KBOU 201133
TAFBJC
TAF
KBJC 201133Z 2012/2112 33006KT P6SM FEW060 SCT200
     FM201400 27008KT P6SM FEW080 SCT140
     FM201700 35013KT P6SM SCT080 BKN140
     FM202000 04010KT P6SM VCSH SCT070 BKN110 PROB30 2021/2024 5SM
      -SHRA BKN070
     FM210100 33011KT P6SM SCT080 BKN120
     FM210400 27008KT P6SM FEW140 SCT220
     FM211000 35008KT P6SM FEW060 SCT080=



000
FTUS45 KBOU 201133
TAFDEN
TAF
KDEN 201133Z 2012/2118 20010KT P6SM FEW070 SCT200
     FM201400 26008KT P6SM FEW080 SCT140
     FM201700 35011KT P6SM SCT090 BKN140
     FM202000 03013KT P6SM VCSH SCT080 BKN120
     FM210000 34010KT P6SM SCT120 BKN200
     FM210400 28008KT P6SM FEW140 SCT220
     FM211000 35009KT P6SM FEW060 SCT080
     FM211300 05013KT P6SM SCT040 BKN060
     FM211700 09008KT P6SM FEW090 SCT140=



000
FTUS45 KBOU 201133
TAFAPA
TAF
KAPA 201133Z 2012/2112 18007KT P6SM FEW100 SCT200
     FM201500 24008KT P6SM SCT080 BKN140
     FM201700 35011KT P6SM SCT090 BKN140
     FM202000 02013KT P6SM VCSH SCT080 BKN120 PROB30 2021/2024 -SHRA
      BKN070
     FM210100 33010KT P6SM SCT100 BKN200
     FM210400 28008KT P6SM FEW120 SCT220
     FM211100 35008KT P6SM FEW060 SCT080=



000
FTUS45 KBOU 200841 AAC
TAFDEN
TAF AMD
KDEN 200841Z 2009/2112 22010KT P6SM FEW110 SCT200
     FM201400 28007KT P6SM SCT140 BKN200
     FM201700 35011KT P6SM SCT120 BKN160
     FM202100 03013KT P6SM VCSH SCT090 BKN130
     FM210100 35010KT P6SM SCT130 BKN200
     FM210500 28007KT P6SM FEW140 SCT220
     FM211000 04009KT P6SM FEW040 SCT070 SCT110=



000
FTUS45 KBOU 200757 AAB
TAFAPA
TAF AMD
KAPA 200757Z 2008/2106 23009KT P6SM VCSH SCT060 BKN100
     FM200900 18007KT P6SM SCT100 SCT140
     FM201600 26007KT P6SM SCT140 BKN200
     FM201900 34010KT P6SM SCT100 SCT140
     FM202100 01012KT P6SM SCT080 BKN140
     FM210200 18009KT P6SM FEW140 SCT220=



000
FTUS45 KBOU 200658 AAB
TAFDEN
TAF AMD
KDEN 200658Z 2007/2112 21014KT P6SM VCSH SCT080 BKN120
      TEMPO 2007/2008 -SHRA BKN070 OVC100
     FM200900 23010KT P6SM SCT090 BKN140 BKN200
     FM201600 28007KT P6SM SCT140 BKN200
     FM201900 35010KT P6SM SCT100 SCT140
     FM202100 02012KT P6SM SCT080 BKN140
     FM210200 18009KT P6SM FEW140 SCT220=



000
FTUS45 KBOU 200657 AAA
TAFAPA
TAF AMD
KAPA 200657Z 2007/2106 23008KT P6SM VCSH SCT060 OVC100
      TEMPO 2007/2008 20013KT 5SM -RA BKN050 OVC080
     FM200800 18011KT P6SM VCSH SCT070 BKN100 BKN200
     FM200900 20007KT P6SM SCT100 BKN140
     FM201600 26007KT P6SM SCT140 BKN200
     FM201900 34010KT P6SM SCT100 SCT140
     FM202100 01012KT P6SM SCT080 BKN140
     FM210200 18009KT P6SM FEW140 SCT220=



000
FTUS45 KBOU 200655 AAA
TAFDEN
TAF AMD
KDEN 200655Z 2007/2112 24013KT P6SM VCSH SCT080 BKN120
      TEMPO 2007/2008 -SHRA BKN070 OVC100
     FM200900 21010KT P6SM SCT090 BKN140 BKN200
     FM201600 28007KT P6SM SCT140 BKN200
     FM201900 35010KT P6SM SCT100 SCT140
     FM202100 02012KT P6SM SCT080 BKN140
     FM210200 18009KT P6SM FEW140 SCT220=



000
FTUS45 KBOU 200539
TAFBJC
TAF
KBJC 200539Z 2006/2106 16006KT P6SM VCSH SCT060 BKN080
      TEMPO 2006/2008 -SHRA BKN050
     FM200800 20007KT P6SM SCT070 BKN110
     FM201000 25007KT P6SM FEW110 SCT140 BKN200
     FM201400 30007KT P6SM SCT140 BKN200
     FM201800 36010KT P6SM SCT080 SCT140
     FM202100 01010KT P6SM VCSH SCT080 BKN120=



000
FTUS45 KBOU 200539
TAFDEN
TAF
KDEN 200539Z 2006/2112 24011KT P6SM VCSH BKN090 OVC120
      TEMPO 2006/2008 23012G17KT 4SM -SHRA BKN050 OVC070
     FM200800 23010KT P6SM VCSH SCT080 BKN120 BKN200
     FM201000 20008KT P6SM SCT100 BKN140
     FM201600 28007KT P6SM SCT140 BKN200
     FM201900 35010KT P6SM SCT100 SCT140
     FM202100 02012KT P6SM SCT080 BKN140
     FM210200 18009KT P6SM FEW140 SCT220=



000
FTUS45 KBOU 200539
TAFAPA
TAF
KAPA 200539Z 2006/2106 20008KT P6SM VCSH BKN070 OVC120
      TEMPO 2006/2008 21010G15KT 3SM SHRA BKN045 OVC060
     FM200800 19010KT P6SM VCSH SCT070 BKN110 BKN200
     FM201000 20008KT P6SM SCT100 BKN140
     FM201600 26007KT P6SM SCT140 BKN200
     FM201900 34010KT P6SM SCT100 SCT140
     FM202100 01012KT P6SM SCT080 BKN140
     FM210200 18009KT P6SM FEW140 SCT220=



000
FTUS45 KBOU 200440 AAB
TAFDEN
TAF AMD
KDEN 200440Z 2005/2106 25011KT P6SM VCSH SCT080 BKN110 OVC130
      TEMPO 2005/2006 -SHRA BKN060 BKN080
     FM200700 22009KT P6SM FEW090 SCT120 BKN200
     FM201600 29007KT P6SM SCT120 BKN200
     FM201800 36010KT P6SM SCT080 SCT120
     FM202100 02012KT P6SM SCT080 BKN120
     FM210200 15008KT P6SM SCT080 BKN120=



000
FTUS45 KBOU 200247 AAA
TAFAPA
TAF AMD
KAPA 200247Z 2003/2024 28006KT P6SM VCSH SCT050 BKN080 BKN110
      TEMPO 2004/2006 -SHRA BKN050
     FM200600 18006KT P6SM SCT080 BKN100
     FM200900 20008KT P6SM FEW100 SCT140 BKN200
     FM201600 29007KT P6SM SCT110 BKN200
     FM201800 36010KT P6SM SCT080 SCT120
     FM202100 02012KT P6SM VCSH SCT080 BKN120=



000
FTUS45 KBOU 200247 AAA
TAFDEN
TAF AMD
KDEN 200247Z 2003/2106 28010KT P6SM VCSH FEW060 BKN080 BKN100
      TEMPO 2004/2006 -SHRA BKN060
     FM200600 18010KT P6SM SCT080 BKN100
     FM200900 21009KT P6SM FEW100 SCT140 BKN200
     FM201600 29007KT P6SM SCT110 BKN200
     FM201800 36010KT P6SM SCT080 SCT120
     FM202100 02012KT P6SM SCT080 BKN120
     FM210200 15008KT P6SM SCT080 BKN120=



000
FTUS45 KBOU 200247 AAA
TAFBJC
TAF AMD
KBJC 200247Z 2003/2024 30010KT P6SM VCSH SCT050 BKN080
      TEMPO 2003/2006 -SHRA BKN050
     FM200600 24007KT P6SM SCT070 BKN100
     FM200900 24007KT P6SM FEW100 SCT140 BKN200
     FM201400 30007KT P6SM SCT110 BKN200
     FM201800 36010KT P6SM SCT080 SCT120
     FM202100 01010KT P6SM VCSH SCT080 BKN120=



000
FTUS45 KBOU 192335
TAFAPA
TAF
KAPA 192335Z 2000/2024 25006KT P6SM VCSH SCT050 BKN080 BKN110
     FM200200 15008KT P6SM SCT080 BKN100
     FM200700 20008KT P6SM FEW100 SCT140 BKN200
     FM201600 29007KT P6SM SCT110 BKN200
     FM201800 36010KT P6SM SCT080 SCT120
     FM202100 02012KT P6SM VCSH SCT080 BKN120=



000
FTUS45 KBOU 192335
TAFDEN
TAF
KDEN 192335Z 2000/2106 30011KT P6SM VCSH SCT080 BKN110
      TEMPO 2000/2001 VRB15G25KT -SHRA BKN080
     FM200200 15010KT P6SM SCT080 BKN100
     FM200700 21009KT P6SM FEW100 SCT140 BKN200
     FM201600 29007KT P6SM SCT110 BKN200
     FM201800 36010KT P6SM SCT080 SCT120
     FM202100 02012KT P6SM SCT080 BKN120
     FM210200 15008KT P6SM SCT080 BKN120=



000
FTUS45 KBOU 192335
TAFBJC
TAF
KBJC 192335Z 2000/2024 30012KT P6SM VCSH SCT060 BKN080
      TEMPO 2000/2001 VRB15G25KT -SHRA BKN060
     FM200200 25008KT P6SM SCT070 BKN100
     FM200700 24007KT P6SM FEW100 SCT140 BKN200
     FM201400 30007KT P6SM SCT110 BKN200
     FM201800 36010KT P6SM SCT080 SCT120
     FM202100 01010KT P6SM VCSH SCT080 BKN120=



000
FTUS45 KBOU 192301 AAB
TAFBJC
TAF AMD
KBJC 192301Z 1923/2018 26014KT P6SM VCSH SCT060 BKN080
      TEMPO 1923/1924 VRB15G25KT 5SM -SHRA BKN060
     FM200200 15007KT P6SM SCT070 BKN100
     FM200700 24007KT P6SM FEW100 SCT140 BKN200
     FM201400 30007KT P6SM SCT110 BKN200=



000
FTUS45 KBOU 192300 AAB
TAFAPA
TAF AMD
KAPA 192300Z 1923/2018 30006KT P6SM VCSH SCT050 BKN080 BKN110
     FM200300 15008KT P6SM SCT080 BKN100
     FM200700 20008KT P6SM FEW100 SCT140 BKN200
     FM201600 29007KT P6SM SCT110 BKN200=



000
FTUS45 KBOU 192102 AAA
TAFBJC
TAF AMD
KBJC 192102Z 1921/2018 08011KT P6SM VCSH SCT070 BKN120
      TEMPO 1921/1923 VRB15G25KT -SHRA BKN070
     FM200200 15007KT P6SM SCT070 BKN100
     FM200700 24007KT P6SM FEW100 SCT140 BKN200
     FM201400 30007KT P6SM SCT110 BKN200=



000
FTUS45 KBOU 192100 AAA
TAFAPA
TAF AMD
KAPA 192100Z 1921/2018 11012G18KT P6SM VCSH SCT050 BKN080 BKN110
      TEMPO 1921/1923 VRB15G30KT -SHRA BKN050
     FM200300 15008KT P6SM SCT080 BKN100
     FM200700 20008KT P6SM FEW100 SCT140 BKN200
     FM201600 29007KT P6SM SCT110 BKN200=



000
FTUS45 KBOU 192056 AAA
TAFDEN
TAF AMD
KDEN 192056Z 1921/2024 10011G18KT P6SM SCT080 SCT110 BKN140
     FM192200 11012KT P6SM VCSH SCT070 BKN090 OVC110
      TEMPO 1923/2001 VRB15G25KT -SHRA BKN070
     FM200200 15008KT P6SM SCT080 BKN100
     FM200700 21009KT P6SM FEW100 SCT140 BKN200
     FM201600 29007KT P6SM SCT110 BKN200
     FM201800 36010KT P6SM SCT080 SCT120
     FM202100 02012KT P6SM SCT080 BKN120=



000
FTUS45 KBOU 191734
TAFBJC
TAF
KBJC 191734Z 1918/2018 06005KT P6SM SCT080 BKN120 OVC200
     FM192000 07008KT P6SM VCSH SCT060 BKN080 OVC120
      TEMPO 1921/2001 VRB15G25KT -SHRA BKN060
     FM200200 15007KT P6SM SCT070 BKN100
     FM200700 24007KT P6SM FEW100 SCT140 BKN200
     FM201400 30007KT P6SM SCT110 BKN200=



000
FTUS45 KBOU 191734
TAFAPA
TAF
KAPA 191734Z 1918/2018 07010KT P6SM SCT080 BKN120 OVC180
     FM192000 09010KT P6SM VCSH SCT050 BKN080 OVC120
      TEMPO 1921/2001 VRB15G25KT -SHRA BKN050
     FM200300 15008KT P6SM SCT080 BKN100
     FM200700 20008KT P6SM FEW100 SCT140 BKN200
     FM201600 29007KT P6SM SCT110 BKN200=



000
FTUS45 KBOU 191734
TAFDEN
TAF
KDEN 191734Z 1918/2024 07010KT P6SM SCT080 BKN120 OVC180
     FM192100 09012KT P6SM VCSH SCT060 BKN080 OVC120
      TEMPO 1922/2001 VRB15G25KT -SHRA BKN060
     FM200200 15008KT P6SM SCT080 BKN100
     FM200700 21009KT P6SM FEW100 SCT140 BKN200
     FM201600 29007KT P6SM SCT110 BKN200
     FM201800 36010KT P6SM SCT080 SCT120
     FM202100 02012KT P6SM SCT080 BKN120=



000
FTUS45 KBOU 191557 AAD
TAFDEN
TAF AMD
KDEN 191557Z 1916/2018 07010KT P6SM SCT080 BKN120 OVC180
     FM192100 09012KT P6SM VCSH SCT060 BKN080 OVC120
      TEMPO 1922/2002 VRB15G25KT -SHRA BKN060
     FM200400 13008KT P6SM SCT080 BKN130
     FM200700 22012KT P6SM FEW100 SCT140 BKN200
     FM201600 28008KT P6SM SCT110 BKN180=



000
FTUS45 KBOU 191504 AAB
TAFBJC
TAF AMD
KBJC 191504Z 1915/2012 12005KT P6SM SCT080 BKN120 OVC200
     FM191530 04010G15KT P6SM SCT070 BKN120
     FM191700 07009KT P6SM VCSH SCT070 OVC120
     FM192000 09008KT P6SM VCSH FEW050 BKN070 OVC120
      TEMPO 1921/2001 VRB15G26KT -TSRA BKN050CB
     FM200300 24012KT P6SM VCSH SCT070 BKN140
     FM200800 28009KT P6SM SCT100 BKN150=



000
FTUS45 KBOU 191504 AAB
TAFAPA
TAF AMD
KAPA 191504Z 1915/2012 13008KT P6SM FEW080 BKN120
     FM191540 06011G18KT P6SM FEW080 BKN110 BKN200
     FM191700 07012KT P6SM SCT070 BKN110 BKN160
     FM191900 09011KT P6SM VCSH SCT070 BKN100 OVC140
     FM192100 11010KT P6SM VCSH SCT060 BKN080 OVC120
      TEMPO 1921/2001 VRB18G30KT -TSRA BKN050CB
     FM200500 16008KT P6SM SCT070 BKN110
     FM200800 19012KT P6SM SCT080 BKN120=



000
FTUS45 KBOU 191502 AAC
TAFDEN
TAF AMD
KDEN 191502Z 1915/2018 05012G20KT P6SM SCT080 OVC130
     FM191700 07010KT P6SM SCT080 BKN120 OVC180
     FM192100 09012KT P6SM VCSH SCT060 BKN080 OVC120
      TEMPO 1922/2002 VRB15G25KT -SHRA BKN060
     FM200400 13008KT P6SM SCT080 BKN130
     FM200700 22012KT P6SM FEW100 SCT140 BKN200
     FM201600 28008KT P6SM SCT110 BKN180=



000
FTUS45 KBOU 191345 AAA
TAFBJC
TAF AMD
KBJC 191345Z 1914/2012 12005KT P6SM SCT080 BKN120 OVC200
     FM191500 04010G15KT P6SM SCT070 BKN120
     FM191700 07009KT P6SM VCSH SCT070 OVC120
     FM192000 09008KT P6SM VCSH FEW050 BKN070 OVC120
      TEMPO 1921/2001 VRB15G26KT -TSRA BKN050CB
     FM200300 24012KT P6SM VCSH SCT070 BKN140
     FM200800 28009KT P6SM SCT100 BKN150=



000
FTUS45 KBOU 191344 AAA
TAFAPA
TAF AMD
KAPA 191344Z 1914/2012 10006KT P6SM FEW080 BKN120
     FM191500 05011G18KT P6SM FEW080 BKN110 BKN200
     FM191700 07012KT P6SM SCT070 BKN110 BKN160
     FM191900 09011KT P6SM VCSH SCT070 BKN100 OVC140
     FM192100 11010KT P6SM VCSH SCT060 BKN080 OVC120
      TEMPO 1921/2001 VRB18G30KT -TSRA BKN050CB
     FM200500 16008KT P6SM SCT070 BKN110
     FM200800 19012KT P6SM SCT080 BKN120=



000
FTUS45 KBOU 191343 AAB
TAFDEN
TAF AMD
KDEN 191343Z 1914/2018 12008KT P6SM FEW100 BKN140 OVC200
     FM191430 05012G20KT P6SM SCT080 OVC130
     FM191700 07010KT P6SM SCT080 BKN120 OVC180
     FM192100 09012KT P6SM VCSH SCT060 BKN080 OVC120
      TEMPO 1922/2002 VRB15G25KT -SHRA BKN060
     FM200400 13008KT P6SM SCT080 BKN130
     FM200700 22012KT P6SM FEW100 SCT140 BKN200
     FM201600 28008KT P6SM SCT110 BKN180=



000
FTUS45 KBOU 191203 AAA
TAFDEN
TAF AMD
KDEN 191203Z 1912/2018 13010KT P6SM BKN140 OVC200
     FM191400 05012G20KT P6SM SCT080 OVC130
     FM191700 07010KT P6SM SCT080 BKN120 OVC180
     FM192100 09012KT P6SM VCSH SCT060 BKN080 OVC120
      TEMPO 1922/2002 VRB15G25KT -SHRA BKN060
     FM200400 13008KT P6SM SCT080 BKN130
     FM200700 22012KT P6SM FEW100 SCT140 BKN200
     FM201600 28008KT P6SM SCT110 BKN180=



000
FTUS45 KBOU 191140
TAFAPA
TAF
KAPA 191140Z 1912/2012 09007KT P6SM SCT120 BKN200
     FM191400 05011G18KT P6SM FEW080 BKN110 BKN200
     FM191600 07012KT P6SM SCT070 BKN110 BKN160
     FM191800 09011KT P6SM VCSH SCT070 BKN100 OVC140
     FM192100 11010KT P6SM VCSH SCT060 BKN080 OVC120
      TEMPO 1922/2002 VRB18G35KT -TSRA BKN050CB
     FM200500 16008KT P6SM SCT070 BKN110
     FM200800 19012KT P6SM SCT080 BKN120=



000
FTUS45 KBOU 191140
TAFBJC
TAF
KBJC 191140Z 1912/2012 32011KT P6SM SCT080 BKN120 OVC200
     FM191400 04010G15KT P6SM SCT070 BKN120
     FM191700 07009KT P6SM VCSH SCT070 OVC120
     FM192000 09008KT P6SM VCSH FEW050 BKN070 OVC120 PROB30
      1921/2001 VRB15G26KT -TSRA BKN050CB
     FM200300 24012KT P6SM VCSH SCT070 BKN140
     FM200800 28009KT P6SM SCT100 BKN150=



000
FTUS45 KBOU 191140
TAFDEN
TAF
KDEN 191140Z 1912/2018 07010KT P6SM FEW120 BKN200
     FM191400 05012G20KT P6SM FEW080 BKN120 OVC200
     FM191700 07010KT P6SM SCT080 BKN120 OVC180
     FM192100 09012KT P6SM VCSH SCT060 BKN080 OVC120
      TEMPO 1922/2002 VRB15G25KT -SHRA BKN060
     FM200400 13008KT P6SM SCT080 BKN130
     FM200700 22012KT P6SM FEW100 SCT140 BKN200
     FM201600 28008KT P6SM SCT110 BKN180=



000
FTUS45 KBOU 191114 AAB
TAFDEN
TAF AMD
KDEN 191114Z 1911/2012 07010KT P6SM FEW120 BKN200
     FM191500 05012G18KT P6SM FEW080 BKN120 OVC200
     FM191700 09012KT P6SM SCT080 BKN120 OVC180
     FM192100 11010KT P6SM VCSH SCT060 BKN080 OVC120 PROB30
      1922/2002 VRB15G25KT -SHRA BKN060
     FM200400 17008KT P6SM SCT090 BKN130
     FM200700 22012KT P6SM FEW100 SCT150=



000
FTUS45 KBOU 191013 AAB
TAFBJC
TAF AMD
KBJC 191013Z 1910/2006 30008G17KT P6SM FEW110 SCT200
     FM191200 34010KT P6SM FEW080 SCT110 BKN200
     FM191500 04013KT P6SM SCT080 BKN140
     FM191800 07009KT P6SM VCSH SCT070 OVC120
     FM192000 09008KT P6SM VCSH FEW060 BKN070 OVC120 PROB30
      1921/2001 VRB16G28KT -TSRA BKN060CB
     FM200200 24012KT P6SM VCSH SCT070 BKN140
     FM200500 28009KT P6SM FEW100 SCT150=



000
FTUS45 KBOU 190802 AAA
TAFDEN
TAF AMD
KDEN 190802Z 1908/2012 22013KT P6SM FEW120 SCT200
     FM191300 30010KT P6SM FEW080 SCT120 BKN200
     FM191500 05013G18KT P6SM SCT080 BKN120 BKN160
     FM191700 08012KT P6SM SCT070 BKN120 OVC150
     FM192100 11010KT P6SM VCSH SCT060 BKN080 OVC120 PROB30
      1922/2002 VRB15G25KT -SHRA BKN060
     FM200400 17008KT P6SM SCT090 BKN130
     FM200700 22012KT P6SM FEW100 SCT150=



000
FTUS45 KBOU 190627 AAA
TAFBJC
TAF AMD
KBJC 190627Z 1906/2006 30007KT P6SM FEW110 SCT200
     FM191100 35009KT P6SM FEW080 SCT110 BKN200
     FM191500 04013KT P6SM SCT080 BKN140
     FM191800 07009KT P6SM VCSH SCT070 OVC120
     FM192000 09008KT P6SM VCSH FEW060 BKN070 OVC120 PROB30
      1921/2001 VRB16G28KT -TSRA BKN060CB
     FM200200 24012KT P6SM VCSH SCT070 BKN140
     FM200500 28009KT P6SM FEW100 SCT150=



000
FTUS45 KBOU 190539
TAFDEN
TAF
KDEN 190539Z 1906/2012 19012KT P6SM FEW120 SCT200
     FM191300 34007KT P6SM FEW080 SCT120 BKN200
     FM191600 05013G18KT P6SM SCT080 BKN120 BKN160
     FM191800 09011KT P6SM SCT070 BKN120 OVC150
     FM192100 11010KT P6SM VCSH SCT060 BKN090 OVC120 PROB30
      1922/2002 VRB15G25KT -SHRA BKN060
     FM200400 17008KT P6SM SCT080 BKN140
     FM200700 22012KT P6SM FEW100 SCT150=



000
FTUS45 KBOU 190539
TAFBJC
TAF
KBJC 190539Z 1906/2006 27012KT P6SM FEW110 SCT200
     FM190900 31007KT P6SM SCT120 SCT200
     FM191500 04011KT P6SM SCT080 BKN160
     FM191800 07010KT P6SM VCSH SCT070 OVC130
     FM192000 09008KT P6SM VCSH SCT060 BKN080 OVC120 PROB30
      1921/2001 VRB16G28KT -TSRA BKN050CB
     FM200200 23008KT P6SM VCSH SCT070 BKN140
     FM200500 27012KT P6SM FEW100 SCT150=



000
FTUS45 KBOU 190539
TAFAPA
TAF
KAPA 190539Z 1906/2006 21008KT P6SM FEW110 SCT200
     FM191400 35007KT P6SM FEW080 SCT130 BKN200
     FM191600 04012G18KT P6SM SCT080 BKN130 BKN160
     FM191800 08011KT P6SM VCSH SCT070 BKN120 OVC150
     FM192100 11010KT P6SM VCSH SCT060 BKN090 OVC120 PROB30
      1921/2002 VRB18G35KT -TSRA BKN050CB
     FM200300 16008KT P6SM SCT080 BKN140
     FM200500 20012KT P6SM FEW100 SCT150=



000
FTUS45 KBOU 190257 AAA
TAFDEN
TAF AMD
KDEN 190257Z 1903/2006 13007KT P6SM SCT120 BKN200
     FM190500 17007KT P6SM SCT100 OVC200
     FM191300 36008KT P6SM SCT080 OVC200
     FM191600 04008KT P6SM SCT080 BKN140
     FM191800 09012KT P6SM VCSH SCT060 OVC140
     FM192200 10010KT P6SM VCSH SCT040 OVC100
     FM200400 18007KT P6SM SCT060 BKN140=



000
FTUS45 KBOU 190215 AAA
TAFBJC
TAF AMD
KBJC 190215Z 1902/1924 28012KT P6SM SCT080 BKN130 BKN220
     FM190300 27006KT P6SM SCT120 BKN200
     FM190700 31007KT P6SM SCT100 OVC200
     FM191500 04008KT P6SM SCT080 OVC200
     FM191800 09010KT P6SM VCSH SCT060 OVC140
     FM192200 10010KT P6SM VCSH SCT040 OVC100=



000
FTUS45 KBOU 182335
TAFDEN
TAF
KDEN 182335Z 1900/2006 33012KT P6SM SCT090 BKN150 BKN220
     FM190300 22010KT P6SM SCT120 BKN200
     FM190700 25009KT P6SM SCT100 OVC200
     FM191500 04008KT P6SM SCT080 OVC200
     FM191800 09012KT P6SM VCSH SCT060 OVC140
     FM192200 10010KT P6SM VCSH SCT040 OVC100=



000
FTUS45 KBOU 182335
TAFBJC
TAF
KBJC 182335Z 1900/1924 35012KT P6SM SCT080 BKN130 BKN220
     FM190300 27006KT P6SM SCT120 BKN200
     FM190700 31007KT P6SM SCT100 OVC200
     FM191500 04008KT P6SM SCT080 OVC200
     FM191800 09010KT P6SM VCSH SCT060 OVC140
     FM192200 10010KT P6SM VCSH SCT040 OVC100=



000
FTUS45 KBOU 182335
TAFAPA
TAF
KAPA 182335Z 1900/1924 26009KT P6SM SCT100 BKN220
     FM190300 21010KT P6SM SCT120 BKN200
     FM190700 24009KT P6SM SCT100 OVC200
     FM191500 04008KT P6SM SCT080 OVC200
     FM191800 09012KT P6SM VCSH SCT060 OVC140
     FM192100 10010KT P6SM VCSH SCT040 OVC100 PROB30 1921/1924
      VRB15G35KT -TSRA BKN050CB=



000
FTUS45 KBOU 182251 AAC
TAFDEN
TAF AMD
KDEN 182251Z 1823/1924 10008KT P6SM FEW090 SCT130 BKN220
     FM190100 23010KT P6SM FEW140 SCT220
     FM190300 20008KT P6SM SCT140 BKN200
     FM190800 25008KT P6SM SCT140 BKN200
     FM191400 36010KT P6SM SCT100 BKN180
     FM191900 04008KT P6SM SCT070 BKN150 PROB30 1920/1924 -TSRA
      BKN060CB=



000
FTUS45 KBOU 182102 AAB
TAFDEN
TAF AMD
KDEN 182102Z 1821/1924 15007KT P6SM FEW100 SCT220
     FM182300 23010KT P6SM FEW140 SCT220
     FM190300 20008KT P6SM SCT140 BKN200
     FM190800 25008KT P6SM SCT140 BKN200
     FM191400 36010KT P6SM SCT100 BKN180
     FM191900 04008KT P6SM SCT070 BKN150 PROB30 1920/1924 -TSRA
      BKN060CB=



000
FTUS45 KBOU 181921 AAA
TAFBJC
TAF AMD
KBJC 181921Z 1819/1918 09007KT P6SM FEW140 BKN220
     FM182100 16008KT P6SM SCT140 SCT220
     FM182300 24008KT P6SM SCT140 BKN220
     FM190300 27006KT P6SM SCT140 BKN200
     FM191400 36010KT P6SM SCT100 BKN180=



000
FTUS45 KBOU 181920 AAA
TAFAPA
TAF AMD
KAPA 181920Z 1819/1918 13010KT P6SM FEW140 BKN220
     FM182100 17007KT P6SM FEW140 SCT220
     FM182300 23010KT P6SM FEW140 SCT220
     FM190300 20008KT P6SM SCT140 BKN200
     FM190800 25008KT P6SM SCT140 BKN200
     FM191500 36010KT P6SM SCT100 BKN180=



000
FTUS45 KBOU 181919 AAA
TAFDEN
TAF AMD
KDEN 181919Z 1819/1924 13008KT P6SM FEW140 BKN220
     FM182100 17007KT P6SM FEW140 SCT220
     FM182300 23010KT P6SM FEW140 SCT220
     FM190300 20008KT P6SM SCT140 BKN200
     FM190800 25008KT P6SM SCT140 BKN200
     FM191400 36010KT P6SM SCT100 BKN180
     FM191900 04008KT P6SM SCT070 BKN150 PROB30 1920/1924 -TSRA
      BKN060CB=



000
FTUS45 KBOU 181727
TAFDEN
TAF
KDEN 181727Z 1818/1924 16007KT P6SM FEW140 BKN220
     FM182000 19007KT P6SM FEW140 SCT220
     FM182300 23010KT P6SM FEW140 SCT220
     FM190300 20008KT P6SM SCT140 BKN200
     FM190800 25008KT P6SM SCT140 BKN200
     FM191400 36010KT P6SM SCT100 BKN180
     FM191900 04008KT P6SM SCT070 BKN150 PROB30 1920/1924 -TSRA
      BKN060CB=



000
FTUS45 KBOU 181727
TAFAPA
TAF
KAPA 181727Z 1818/1918 15007KT P6SM FEW140 BKN220
     FM182000 19007KT P6SM FEW140 SCT220
     FM182300 23010KT P6SM FEW140 SCT220
     FM190300 20008KT P6SM SCT140 BKN200
     FM190800 25008KT P6SM SCT140 BKN200
     FM191500 36010KT P6SM SCT100 BKN180=



000
FTUS45 KBOU 181727
TAFBJC
TAF
KBJC 181727Z 1818/1918 14007KT P6SM FEW140 BKN220
     FM182000 20008KT P6SM SCT140 SCT220
     FM182300 24008KT P6SM SCT140 BKN220
     FM190300 27006KT P6SM SCT140 BKN200
     FM191400 36010KT P6SM SCT100 BKN180=



000
FTUS45 KBOU 181615 AAB
TAFDEN
TAF AMD
KDEN 181615Z 1816/1918 16007KT P6SM FEW140 BKN220
     FM181900 19007KT P6SM FEW140 SCT220
     FM182200 23012KT P6SM FEW140 SCT220
     FM190300 20010KT P6SM SCT140 BKN200
     FM190800 24008KT P6SM SCT140 BKN200
     FM191500 36010KT P6SM SCT100 BKN200=



000
FTUS45 KBOU 181459 AAA
TAFDEN
TAF AMD
KDEN 181459Z 1815/1918 19010KT P6SM SCT220
     FM181700 18007KT P6SM FEW140 FEW220
     FM182200 23012KT P6SM FEW140 SCT220
     FM190300 20010KT P6SM SCT140 BKN200
     FM190800 24008KT P6SM SCT140 BKN200
     FM191500 36010KT P6SM SCT100 BKN200=



000
FTUS45 KBOU 181120
TAFBJC
TAF
KBJC 181120Z 1812/1912 VRB05KT P6SM FEW220
     FM181700 08006KT P6SM FEW140 SCT200
     FM182000 21008KT P6SM SCT140 SCT200
     FM182300 24008KT P6SM SCT140 BKN200
     FM190300 27006KT P6SM SCT140 BKN200=



000
FTUS45 KBOU 181120
TAFAPA
TAF
KAPA 181120Z 1812/1912 21008KT P6SM FEW220
     FM181700 17007KT P6SM FEW140 FEW220
     FM182300 23011KT P6SM FEW140 SCT220
     FM190300 20010KT P6SM SCT140 BKN200=



000
FTUS45 KBOU 181120
TAFDEN
TAF
KDEN 181120Z 1812/1918 20012KT P6SM SCT220
     FM181600 20007KT P6SM FEW140 FEW220
     FM182200 23012KT P6SM FEW140 SCT220
     FM190300 20010KT P6SM SCT140 BKN200
     FM190800 24008KT P6SM SCT140 BKN200
     FM191500 36010KT P6SM SCT100 BKN200=



000
FTUS45 KBOU 180901 AAB
TAFAPA
TAF AMD
KAPA 180901Z 1809/1906 16011KT P6SM SCT220
     FM181100 21010KT P6SM FEW220
     FM181700 19007KT P6SM FEW140 FEW220
     FM182200 24012KT P6SM FEW140 SCT220
     FM190300 20010KT P6SM SCT140 BKN200=



000
FTUS45 KBOU 180900 AAA
TAFDEN
TAF AMD
KDEN 180900Z 1809/1912 19012KT P6SM SCT220
     FM181600 20007KT P6SM FEW140 FEW220
     FM182200 24012KT P6SM FEW140 SCT220
     FM190300 21010KT P6SM SCT140 BKN200=



000
FTUS45 KBOU 180816 AAA
TAFAPA
TAF AMD
KAPA 180816Z 1808/1906 18011KT P6SM SCT220
     FM180900 21013KT P6SM FEW220
     FM181700 19007KT P6SM FEW140 FEW220
     FM182200 24012KT P6SM FEW140 SCT220
     FM190300 20010KT P6SM SCT140 BKN200=



000
FTUS45 KBOU 180522
TAFAPA
TAF
KAPA 180522Z 1806/1906 18011KT P6SM SCT220
     FM180800 21013KT P6SM FEW220
     FM181700 19007KT P6SM FEW140 FEW220
     FM182200 24012KT P6SM FEW140 SCT220
     FM190300 20010KT P6SM SCT140 BKN200=



000
FTUS45 KBOU 180522
TAFBJC
TAF
KBJC 180522Z 1806/1906 30006KT P6SM FEW220
     FM181400 VRB05KT P6SM FEW140 FEW220
     FM182100 25014KT P6SM FEW140 SCT220=



000
FTUS45 KBOU 180522
TAFDEN
TAF
KDEN 180522Z 1806/1912 19012KT P6SM SCT220
     FM180800 22014KT P6SM FEW220
     FM181600 20007KT P6SM FEW140 FEW220
     FM182200 24012KT P6SM FEW140 SCT220
     FM190300 21010KT P6SM SCT140 BKN200=



000
FTUS45 KBOU 180202 AAA
TAFDEN
TAF AMD
KDEN 180202Z 1802/1906 17013KT P6SM FEW080 SCT220
     FM180300 19012KT P6SM SCT220
     FM180500 22014KT P6SM FEW220
     FM181700 20007KT P6SM FEW140 FEW220
     FM182200 25012KT P6SM FEW140 SCT220=



000
FTUS45 KBOU 180202 AAA
TAFBJC
TAF AMD
KBJC 180202Z 1802/1824 14006KT P6SM FEW100 SCT220
     FM180330 25012KT P6SM SCT220
     FM180500 30006KT P6SM FEW220
     FM181400 VRB05KT P6SM FEW140 FEW220
     FM182100 25014KT P6SM FEW140 SCT220=



000
FTUS45 KBOU 180202 AAA
TAFAPA
TAF AMD
KAPA 180202Z 1802/1824 16013KT P6SM FEW080 SCT220
     FM180300 18011KT P6SM SCT220
     FM180500 21013KT P6SM FEW220
     FM181700 19007KT P6SM FEW140 FEW220
     FM182200 24012KT P6SM FEW140 SCT220=



000
FTUS45 KBOU 172329
TAFBJC
TAF
KBJC 172329Z 1800/1824 12006KT P6SM FEW100 SCT220
     FM180200 25012KT P6SM SCT220
     FM180500 30006KT P6SM FEW220
     FM181400 VRB05KT P6SM FEW140 FEW220
     FM182100 25014KT P6SM FEW140 SCT220=



000
FTUS45 KBOU 172329
TAFDEN
TAF
KDEN 172329Z 1800/1906 15012KT P6SM FEW080 SCT220
     FM180200 21010KT P6SM SCT220
     FM180500 22014KT P6SM FEW220
     FM181700 20007KT P6SM FEW140 FEW220
     FM182200 25012KT P6SM FEW140 SCT220=



000
FTUS45 KBOU 172329
TAFAPA
TAF
KAPA 172329Z 1800/1824 16012KT P6SM FEW080 SCT220
     FM180200 20009KT P6SM SCT220
     FM180500 21013KT P6SM FEW220
     FM181700 19007KT P6SM FEW140 FEW220
     FM182200 24012KT P6SM FEW140 SCT220=



000
FTUS45 KBOU 172102 AAC
TAFAPA
TAF AMD
KAPA 172102Z 1721/1818 16008KT P6SM FEW100 SCT150 BKN220
     FM180300 19008KT P6SM FEW220
     FM181400 20007KT P6SM FEW220=



000
FTUS45 KBOU 172102 AAA
TAFDEN
TAF AMD
KDEN 172102Z 1721/1824 14007KT P6SM SCT080 SCT220
     FM172300 12006KT P6SM FEW140 SCT220
     FM180300 22008KT P6SM FEW220
     FM181400 20007KT P6SM FEW220
     FM182000 16006KT P6SM FEW140 SCT220=



000
FTUS45 KBOU 172001 AAB
TAFAPA
TAF AMD
KAPA 172001Z 1720/1818 14012G20KT P6SM FEW140 SCT220
     FM172200 15010KT P6SM FEW140 SCT220
     FM180300 19008KT P6SM FEW220
     FM181400 20007KT P6SM FEW220=



000
FTUS45 KBOU 171829 AAA
TAFAPA
TAF AMD
KAPA 171829Z 1718/1818 13008KT P6SM FEW140 SCT220
     FM172200 15007KT P6SM FEW140 SCT220
     FM180300 19008KT P6SM FEW220
     FM181400 20007KT P6SM FEW220=



    US Dept of Commerce
    National Oceanic and Atmospheric Administration
    National Weather Service
    1325 East West Highway
    Silver Spring, MD 20910
    Page Author: NWS Internet Services Team
Disclaimer
Information Quality
Credits
Glossary
Privacy Policy
Freedom of Information Act (FOIA)
About Us
Career Opportunities